createdAt,value
2018-09-14T00:00:37.808Z,85.98
2018-09-14T00:03:07.834Z,85.74
2018-09-14T00:05:37.024Z,86.49
2018-09-14T00:08:06.207Z,86.85
2018-09-14T00:10:35.379Z,86.22
2018-09-14T00:13:04.656Z,87.02
2018-09-14T00:15:33.790Z,87.46
2018-09-14T00:18:03.396Z,87.58
2018-09-14T00:20:32.661Z,87.77
2018-09-14T00:23:01.777Z,87.89
2018-09-14T00:25:30.981Z,88.19
2018-09-14T00:28:00.160Z,88.68
2018-09-14T00:30:29.486Z,89.73
2018-09-14T00:32:58.612Z,88.97
2018-09-14T00:35:27.750Z,89.40
2018-09-14T00:37:57.002Z,89.37
2018-09-14T00:40:26.138Z,90.31
2018-09-14T00:42:55.776Z,90.34
2018-09-14T00:45:24.926Z,91.50
2018-09-14T00:47:54.074Z,90.08
2018-09-14T00:50:23.289Z,90.59
2018-09-14T00:52:52.406Z,90.76
2018-09-14T00:55:21.613Z,91.05
2018-09-14T00:57:50.715Z,91.22
2018-09-14T01:00:19.891Z,91.45
2018-09-14T01:02:49.144Z,92.27
2018-09-14T01:05:18.322Z,91.86
2018-09-14T01:07:47.470Z,92.33
2018-09-14T01:10:16.639Z,92.67
2018-09-14T01:12:45.768Z,91.86
2018-09-14T01:15:14.905Z,91.66
2018-09-14T01:17:44.071Z,92.27
2018-09-14T01:20:13.249Z,92.35
2018-09-14T01:22:42.452Z,93.09
2018-09-14T01:25:11.694Z,93.20
2018-09-14T01:27:40.929Z,92.74
2018-09-14T01:30:10.072Z,93.72
2018-09-14T01:32:39.212Z,93.06
2018-09-14T01:36:13.349Z,93.29
2018-09-14T01:38:42.769Z,92.86
2018-09-14T01:41:11.908Z,93.45
2018-09-14T01:43:41.086Z,92.71
2018-09-14T01:46:10.275Z,93.33
2018-09-14T01:48:39.532Z,94.29
2018-09-14T01:51:08.644Z,94.15
2018-09-14T01:53:37.795Z,94.17
2018-09-14T01:56:06.920Z,94.47
2018-09-14T01:58:36.088Z,94.48
2018-09-14T02:01:05.365Z,94.27
2018-09-14T02:03:34.681Z,95.19
2018-09-14T02:06:03.895Z,95.29
2018-09-14T02:08:33.126Z,94.56
2018-09-14T02:11:02.247Z,95.00
2018-09-14T02:13:31.356Z,95.36
2018-09-14T02:16:00.533Z,95.36
2018-09-14T02:18:29.719Z,95.11
2018-09-14T02:20:58.933Z,95.35
2018-09-14T02:23:28.104Z,95.75
2018-09-14T02:25:57.212Z,95.93
2018-09-14T02:28:26.315Z,95.67
2018-09-14T02:30:55.467Z,96.49
2018-09-14T02:33:24.735Z,95.99
2018-09-14T02:35:53.881Z,96.46
2018-09-14T02:38:23.123Z,96.32
2018-09-14T02:40:52.217Z,96.08
2018-09-14T02:43:22.197Z,96.45
2018-09-14T02:45:51.291Z,96.27
2018-09-14T02:48:20.452Z,96.55
2018-09-14T02:50:49.639Z,96.40
2018-09-14T02:53:18.777Z,96.35
2018-09-14T02:55:48.129Z,97.29
2018-09-14T02:58:17.331Z,97.45
2018-09-14T03:00:46.482Z,97.23
2018-09-14T03:03:15.717Z,97.03
2018-09-14T03:05:44.859Z,97.09
2018-09-14T03:08:14.130Z,96.92
2018-09-14T03:10:43.301Z,96.46
2018-09-14T03:13:12.446Z,96.91
2018-09-14T03:15:41.555Z,97.81
2018-09-14T03:18:10.718Z,97.07
2018-09-14T03:20:39.814Z,97.37
2018-09-14T03:23:08.963Z,97.97
2018-09-14T03:25:38.225Z,97.60
2018-09-14T03:28:07.567Z,97.29
2018-09-14T03:30:36.699Z,97.35
2018-09-14T03:33:06.240Z,97.66
2018-09-14T03:35:35.474Z,97.22
2018-09-14T03:38:04.618Z,97.50
2018-09-14T03:40:33.816Z,96.53
2018-09-14T03:43:02.938Z,97.10
2018-09-14T03:45:32.145Z,97.11
2018-09-14T03:48:01.367Z,96.98
2018-09-14T03:50:30.664Z,97.03
2018-09-14T03:52:59.914Z,97.18
2018-09-14T03:55:29.121Z,97.06
2018-09-14T03:57:58.259Z,96.75
2018-09-14T04:00:27.502Z,96.43
2018-09-14T04:02:56.723Z,97.10
2018-09-14T04:05:26.015Z,95.04
2018-09-14T04:07:55.286Z,95.72
2018-09-14T04:10:24.474Z,95.99
2018-09-14T04:12:53.691Z,96.28
2018-09-14T04:15:22.865Z,96.08
2018-09-14T04:17:52.041Z,95.61
2018-09-14T04:20:21.247Z,96.29
2018-09-14T04:22:50.510Z,95.73
2018-09-14T04:25:19.685Z,95.74
2018-09-14T04:27:48.904Z,94.82
2018-09-14T04:30:18.191Z,95.14
2018-09-14T04:32:47.405Z,95.49
2018-09-14T04:35:16.864Z,95.56
2018-09-14T04:37:46.095Z,96.33
2018-09-14T04:40:15.264Z,96.54
2018-09-14T04:42:44.392Z,96.16
2018-09-14T04:45:13.612Z,96.37
2018-09-14T04:47:42.808Z,96.75
2018-09-14T04:50:12.036Z,97.41
2018-09-14T04:52:41.313Z,96.93
2018-09-14T04:55:10.544Z,97.82
2018-09-14T04:57:39.706Z,97.63
2018-09-14T05:00:08.971Z,97.06
2018-09-14T05:02:38.140Z,97.30
2018-09-14T05:05:07.316Z,98.20
2018-09-14T05:07:36.479Z,98.97
2018-09-14T05:10:06.229Z,98.08
2018-09-14T05:12:35.448Z,98.29
2018-09-14T05:15:04.678Z,98.38
2018-09-14T05:17:33.865Z,98.76
2018-09-14T05:20:03.109Z,98.23
2018-09-14T05:22:32.229Z,97.99
2018-09-14T05:25:01.493Z,98.99
2018-09-14T05:27:30.684Z,99.11
2018-09-14T05:29:59.911Z,97.72
2018-09-14T05:32:29.124Z,97.70
2018-09-14T05:34:58.383Z,98.10
2018-09-14T05:37:27.671Z,98.58
2018-09-14T05:39:56.900Z,99.06
2018-09-14T05:42:26.053Z,99.50
2018-09-14T05:44:55.254Z,99.94
2018-09-14T05:47:24.707Z,100.00
2018-09-14T05:49:53.836Z,99.95
2018-09-14T05:52:23.093Z,100.00
2018-09-14T05:54:52.310Z,99.11
2018-09-14T05:57:21.509Z,98.51
2018-09-14T05:59:50.674Z,97.66
2018-09-14T06:02:19.944Z,96.75
2018-09-14T06:04:49.620Z,96.35
2018-09-14T06:07:19.118Z,94.64
2018-09-14T06:09:48.285Z,93.99
2018-09-14T06:12:17.679Z,92.84
2018-09-14T06:14:46.977Z,91.34
2018-09-14T06:17:16.207Z,91.05
2018-09-14T06:19:45.440Z,91.25
2018-09-14T06:22:14.710Z,89.60
2018-09-14T06:24:43.815Z,87.52
2018-09-14T06:27:13.029Z,85.39
2018-09-14T06:29:42.192Z,84.40
2018-09-14T06:32:11.321Z,83.48
2018-09-14T06:34:40.469Z,82.16
2018-09-14T06:37:09.672Z,81.42
2018-09-14T06:39:38.821Z,80.53
2018-09-14T06:42:07.900Z,79.34
2018-09-14T06:44:37.045Z,78.93
2018-09-14T06:47:06.235Z,77.03
2018-09-14T06:49:35.456Z,77.37
2018-09-14T06:52:04.722Z,77.64
2018-09-14T06:54:33.816Z,76.50
2018-09-14T06:57:02.948Z,77.11
2018-09-14T06:59:32.271Z,75.97
2018-09-14T07:02:01.623Z,73.76
2018-09-14T07:04:30.680Z,72.93
2018-09-14T07:06:59.847Z,70.81
2018-09-14T07:09:29.021Z,71.18
2018-09-14T07:11:58.283Z,68.44
2018-09-14T07:14:27.467Z,67.89
2018-09-14T07:16:56.705Z,66.54
2018-09-14T07:19:25.871Z,67.83
2018-09-14T07:21:55.265Z,66.68
2018-09-14T07:24:24.871Z,66.19
2018-09-14T07:26:53.961Z,64.69
2018-09-14T07:29:23.232Z,65.99
2018-09-14T07:31:52.546Z,65.18
2018-09-14T07:34:21.635Z,65.47
2018-09-14T07:36:50.911Z,64.71
2018-09-14T07:39:20.007Z,63.70
2018-09-14T07:41:49.129Z,62.32
2018-09-14T07:44:18.361Z,61.86
2018-09-14T07:46:47.524Z,61.76
2018-09-14T07:49:16.704Z,60.97
2018-09-14T07:51:45.914Z,60.12
2018-09-14T07:56:57.976Z,59.19
2018-09-14T07:59:27.129Z,60.24
2018-09-14T08:01:56.290Z,59.53
2018-09-14T08:04:25.481Z,57.57
2018-09-14T08:06:54.629Z,56.83
2018-09-14T08:09:23.741Z,54.95
2018-09-14T08:11:52.907Z,54.32
2018-09-14T08:14:22.120Z,54.64
2018-09-14T08:16:51.263Z,53.10
2018-09-14T08:19:20.369Z,52.26
2018-09-14T08:21:49.698Z,51.76
2018-09-14T08:24:18.775Z,53.14
2018-09-14T08:26:48.031Z,52.16
2018-09-14T08:29:17.124Z,51.25
2018-09-14T08:31:46.232Z,50.82
2018-09-14T08:34:15.422Z,50.33
2018-09-14T08:36:44.695Z,48.61
2018-09-14T08:39:13.895Z,49.90
2018-09-14T08:41:43.021Z,49.04
2018-09-14T08:44:12.189Z,49.11
2018-09-14T08:46:41.459Z,49.88
2018-09-14T08:49:10.690Z,48.48
2018-09-14T08:51:39.792Z,48.47
2018-09-14T08:54:09.013Z,46.35
2018-09-14T08:56:38.184Z,46.82
2018-09-14T08:59:07.681Z,47.22
2018-09-14T09:01:36.848Z,46.28
2018-09-14T09:04:06.093Z,47.46
2018-09-14T09:06:35.246Z,46.81
2018-09-14T09:09:06.345Z,46.17
2018-09-14T09:11:35.564Z,46.10
2018-09-14T09:14:04.794Z,44.93
2018-09-14T09:16:34.034Z,45.16
2018-09-14T09:19:03.233Z,45.38
2018-09-14T09:21:32.617Z,45.11
2018-09-14T09:24:01.809Z,45.28
2018-09-14T09:26:31.220Z,45.34
2018-09-14T09:29:00.644Z,44.93
2018-09-14T09:31:29.838Z,45.74
2018-09-14T09:33:58.943Z,45.55
2018-09-14T09:36:28.243Z,44.54
2018-09-14T09:38:57.476Z,44.12
2018-09-14T09:41:26.568Z,43.99
2018-09-14T09:43:55.882Z,43.84
2018-09-14T09:46:25.044Z,45.55
2018-09-14T09:48:54.202Z,43.88
2018-09-14T09:51:23.413Z,43.89
2018-09-14T09:53:52.535Z,43.00
2018-09-14T09:56:21.724Z,41.54
2018-09-14T09:58:50.973Z,44.15
2018-09-14T10:01:25.322Z,42.30
2018-09-14T10:03:59.796Z,41.62
2018-09-14T10:06:29.077Z,43.22
2018-09-14T10:08:58.319Z,42.95
2018-09-14T10:11:27.893Z,41.67
2018-09-14T10:13:57.154Z,41.36
2018-09-14T10:16:26.292Z,41.33
2018-09-14T10:18:55.429Z,41.77
2018-09-14T10:21:24.673Z,41.27
2018-09-14T10:23:53.801Z,39.15
2018-09-14T10:26:22.979Z,39.08
2018-09-14T10:28:52.156Z,38.37
2018-09-14T10:31:21.323Z,38.02
2018-09-14T10:33:50.472Z,37.72
2018-09-14T10:36:19.609Z,37.03
2018-09-14T10:38:48.973Z,37.25
2018-09-14T10:41:18.078Z,36.55
2018-09-14T10:43:47.243Z,36.34
2018-09-14T10:46:16.469Z,35.54
2018-09-14T10:48:45.680Z,34.96
2018-09-14T10:51:14.979Z,37.43
2018-09-14T10:53:44.228Z,36.30
2018-09-14T10:56:13.355Z,37.06
2018-09-14T10:58:42.471Z,36.21
2018-09-14T11:01:14.292Z,38.72
2018-09-14T11:03:43.700Z,39.12
2018-09-14T11:06:13.852Z,38.66
2018-09-14T11:08:43.031Z,40.82
2018-09-14T11:11:12.159Z,38.88
2018-09-14T11:13:41.447Z,39.01
2018-09-14T11:16:10.646Z,39.34
2018-09-14T11:18:39.905Z,38.14
2018-09-14T11:21:09.106Z,37.35
2018-09-14T11:23:38.450Z,36.51
2018-09-14T11:26:07.624Z,37.50
2018-09-14T11:28:36.732Z,36.82
2018-09-14T11:31:06.783Z,37.08
2018-09-14T11:33:35.974Z,35.68
2018-09-14T11:36:05.129Z,35.63
2018-09-14T11:38:34.434Z,35.12
2018-09-14T11:41:03.388Z,36.56
2018-09-14T11:43:32.529Z,36.11
2018-09-14T11:46:01.815Z,34.69
2018-09-14T11:48:30.858Z,32.85
2018-09-14T11:51:00.123Z,34.59
2018-09-14T11:53:29.555Z,33.38
2018-09-14T11:55:58.656Z,32.94
2018-09-14T11:58:27.927Z,34.85
2018-09-14T12:00:57.109Z,36.21
2018-09-14T12:03:26.272Z,36.81
2018-09-14T12:05:55.526Z,38.37
2018-09-14T12:08:24.749Z,39.35
2018-09-14T12:10:53.898Z,38.53
2018-09-14T12:13:23.097Z,36.17
2018-09-14T12:15:52.334Z,35.39
2018-09-14T12:18:21.688Z,34.78
2018-09-14T12:20:50.833Z,35.78
2018-09-14T12:23:19.947Z,34.52
2018-09-14T12:25:49.195Z,34.18
2018-09-14T12:28:18.411Z,34.15
2018-09-14T12:30:47.538Z,34.29
2018-09-14T12:33:16.741Z,33.78
2018-09-14T12:35:46.022Z,34.41
2018-09-14T12:38:15.231Z,33.83
2018-09-14T12:40:44.355Z,33.20
2018-09-14T12:43:13.464Z,33.61
2018-09-14T12:45:42.664Z,33.29
2018-09-14T12:48:11.803Z,32.63
2018-09-14T12:50:40.960Z,34.43
2018-09-14T12:53:10.178Z,35.15
2018-09-14T12:55:39.333Z,35.14
2018-09-14T12:58:08.454Z,33.38
2018-09-14T13:00:37.611Z,34.30
2018-09-14T13:03:06.777Z,33.55
2018-09-14T13:05:35.904Z,34.68
2018-09-14T13:08:05.308Z,33.94
2018-09-14T13:10:34.853Z,34.67
2018-09-14T13:13:03.952Z,33.70
2018-09-14T13:15:33.330Z,34.38
2018-09-14T13:18:02.455Z,33.42
2018-09-14T13:20:31.640Z,33.36
2018-09-14T13:23:00.885Z,33.27
2018-09-14T13:25:30.273Z,33.78
2018-09-14T13:27:59.460Z,34.02
2018-09-14T13:30:28.680Z,35.29
2018-09-14T13:32:57.732Z,36.93
2018-09-14T13:35:27.027Z,36.66
2018-09-14T13:37:56.328Z,36.33
2018-09-14T13:40:25.736Z,35.11
2018-09-14T13:42:54.837Z,35.06
2018-09-14T13:45:24.113Z,35.28
2018-09-14T13:47:53.329Z,36.14
2018-09-14T13:50:22.437Z,37.37
2018-09-14T13:52:51.635Z,36.89
2018-09-14T13:55:20.807Z,36.21
2018-09-14T13:57:49.952Z,35.17
2018-09-14T14:00:19.165Z,34.80
2018-09-14T14:02:48.368Z,34.78
2018-09-14T14:05:17.502Z,34.63
2018-09-14T14:07:46.717Z,34.25
2018-09-14T14:10:15.933Z,35.00
2018-09-14T14:12:45.074Z,34.50
2018-09-14T14:15:14.244Z,33.29
2018-09-14T14:17:43.350Z,32.84
2018-09-14T14:20:12.695Z,30.96
2018-09-14T14:22:41.855Z,32.57
2018-09-14T14:25:11.044Z,32.30
2018-09-14T14:27:40.239Z,30.39
2018-09-14T14:30:09.511Z,30.85
2018-09-14T14:32:38.635Z,30.45
2018-09-14T14:35:08.013Z,30.97
2018-09-14T14:37:37.311Z,31.06
2018-09-14T14:40:06.604Z,31.09
2018-09-14T14:42:35.790Z,33.76
2018-09-14T14:45:05.014Z,33.28
2018-09-14T14:47:34.243Z,33.95
2018-09-14T14:50:03.462Z,34.77
2018-09-14T14:52:32.736Z,34.64
2018-09-14T14:55:02.193Z,33.58
2018-09-14T14:57:31.343Z,34.24
2018-09-14T15:00:00.488Z,34.82
2018-09-14T15:02:29.723Z,34.92
2018-09-14T15:04:59.020Z,37.49
2018-09-14T15:07:28.200Z,34.75
2018-09-14T15:09:57.410Z,34.95
2018-09-14T15:12:26.601Z,35.64
2018-09-14T15:14:55.751Z,35.51
2018-09-14T15:17:25.200Z,36.53
2018-09-14T15:19:54.360Z,37.81
2018-09-14T15:22:23.602Z,38.89
2018-09-14T15:24:52.777Z,37.98
2018-09-14T15:27:21.917Z,41.04
2018-09-14T15:29:51.083Z,40.19
2018-09-14T15:32:20.229Z,41.81
2018-09-14T15:34:49.518Z,40.95
2018-09-14T15:37:18.840Z,39.52
2018-09-14T15:39:48.032Z,41.12
2018-09-14T15:42:17.295Z,41.07
2018-09-14T15:44:46.456Z,42.71
2018-09-14T15:47:15.744Z,42.10
2018-09-14T15:49:45.191Z,42.82
2018-09-14T15:52:14.463Z,41.78
2018-09-14T15:54:43.609Z,41.02
2018-09-14T15:57:12.947Z,43.85
2018-09-14T15:59:42.183Z,42.39
2018-09-14T16:02:11.548Z,41.79
2018-09-14T16:04:40.838Z,42.74
2018-09-14T16:07:10.092Z,43.89
2018-09-14T16:09:39.229Z,43.93
2018-09-14T16:12:08.460Z,45.73
2018-09-14T16:14:37.792Z,45.40
2018-09-14T16:17:07.174Z,44.10
2018-09-14T16:19:36.379Z,44.73
2018-09-14T16:22:05.583Z,44.14
2018-09-14T16:24:34.874Z,44.39
2018-09-14T16:27:04.052Z,41.25
2018-09-14T16:29:39.618Z,42.09
2018-09-14T16:32:08.845Z,42.10
2018-09-14T16:34:37.997Z,43.47
2018-09-14T16:37:07.217Z,43.69
2018-09-14T16:39:36.464Z,44.40
2018-09-14T16:42:07.096Z,44.40
2018-09-14T16:47:16.525Z,46.05
2018-09-14T16:49:45.665Z,44.93
2018-09-14T16:52:14.783Z,45.44
2018-09-14T16:54:44.128Z,46.92
2018-09-14T16:57:13.285Z,47.71
2018-09-14T16:59:42.451Z,48.77
2018-09-14T17:02:11.617Z,46.69
2018-09-14T17:04:40.844Z,47.35
2018-09-14T17:07:10.091Z,47.92
2018-09-14T17:09:39.382Z,47.82
2018-09-14T17:12:09.495Z,49.54
2018-09-14T17:14:39.698Z,47.17
2018-09-14T17:17:09.071Z,49.07
2018-09-14T17:19:38.196Z,48.19
2018-09-14T17:22:07.706Z,48.47
2018-09-14T17:24:36.912Z,48.62
2018-09-14T17:27:06.120Z,49.24
2018-09-14T17:29:35.335Z,49.34
2018-09-14T17:32:05.508Z,50.51
2018-09-14T17:34:34.859Z,49.75
2018-09-14T17:37:04.558Z,50.78
2018-09-14T17:39:33.878Z,50.90
2018-09-14T17:42:03.052Z,51.26
2018-09-14T17:44:32.235Z,50.90
2018-09-14T17:47:01.367Z,51.21
2018-09-14T17:49:30.504Z,51.30
2018-09-14T17:51:59.642Z,51.84
2018-09-14T17:54:28.857Z,52.42
2018-09-14T17:56:58.020Z,53.30
2018-09-14T17:59:29.693Z,51.67
2018-09-14T18:01:58.800Z,52.96
2018-09-14T18:04:27.971Z,52.89
2018-09-14T18:06:57.102Z,54.31
2018-09-14T18:09:26.310Z,53.76
2018-09-14T18:11:55.524Z,53.76
2018-09-14T18:14:24.644Z,54.39
2018-09-14T18:16:53.799Z,55.02
2018-09-14T18:19:22.962Z,56.49
2018-09-14T18:21:52.132Z,55.33
2018-09-14T18:24:22.124Z,55.69
2018-09-14T18:26:51.276Z,55.97
2018-09-14T18:29:20.701Z,56.67
2018-09-14T18:31:49.927Z,57.36
2018-09-14T18:34:19.077Z,57.10
2018-09-14T18:36:48.235Z,57.74
2018-09-14T18:39:17.403Z,58.60
2018-09-14T18:41:46.625Z,57.94
2018-09-14T18:44:15.874Z,58.57
2018-09-14T18:46:45.174Z,59.42
2018-09-14T18:49:14.357Z,59.73
2018-09-14T18:51:43.581Z,59.63
2018-09-14T18:54:12.774Z,59.42
2018-09-14T18:56:41.940Z,59.35
2018-09-14T18:59:11.056Z,59.45
2018-09-14T19:01:40.228Z,59.81
2018-09-14T19:04:09.372Z,59.53
2018-09-14T19:06:38.631Z,60.48
2018-09-14T19:09:09.951Z,60.43
2018-09-14T19:11:39.192Z,60.02
2018-09-14T19:14:08.440Z,60.79
2018-09-14T19:16:37.585Z,60.49
2018-09-14T19:19:06.760Z,61.40
2018-09-14T19:21:35.938Z,61.08
2018-09-14T19:24:05.154Z,61.78
2018-09-14T19:26:34.416Z,61.37
2018-09-14T19:29:03.733Z,60.38
2018-09-14T19:31:32.993Z,60.93
2018-09-14T19:34:02.110Z,60.59
2018-09-14T19:36:31.318Z,61.69
2018-09-14T19:39:00.517Z,61.28
2018-09-14T19:41:29.639Z,62.09
2018-09-14T19:43:58.826Z,62.09
2018-09-14T19:46:27.920Z,61.72
2018-09-14T19:48:57.052Z,61.74
2018-09-14T19:51:26.289Z,62.93
2018-09-14T19:53:55.609Z,62.86
2018-09-14T19:56:24.892Z,62.62
2018-09-14T19:58:54.212Z,62.71
2018-09-14T20:01:23.389Z,63.44
2018-09-14T20:03:52.668Z,63.72
2018-09-14T20:06:22.098Z,64.52
2018-09-14T20:08:51.240Z,63.75
2018-09-14T20:11:20.456Z,64.46
2018-09-14T20:13:49.699Z,64.65
2018-09-14T20:16:19.201Z,64.08
2018-09-14T20:18:48.628Z,64.77
2018-09-14T20:21:17.730Z,64.91
2018-09-14T20:23:47.020Z,64.38
2018-09-14T20:26:16.304Z,65.07
2018-09-14T20:28:45.563Z,65.87
2018-09-14T20:31:14.729Z,66.08
2018-09-14T20:33:44.102Z,66.05
2018-09-14T20:36:13.277Z,65.93
2018-09-14T20:38:43.576Z,66.43
2018-09-14T20:41:12.860Z,66.83
2018-09-14T20:43:42.654Z,67.27
2018-09-14T20:46:12.057Z,67.28
2018-09-14T20:48:41.261Z,67.57
2018-09-14T20:51:10.391Z,69.10
2018-09-14T20:53:39.653Z,68.53
2018-09-14T20:56:08.924Z,68.97
2018-09-14T20:58:38.104Z,68.62
2018-09-14T21:01:08.830Z,68.53
2018-09-14T21:03:38.048Z,68.39
2018-09-14T21:06:07.220Z,69.43
2018-09-14T21:08:36.508Z,69.16
2018-09-14T21:11:05.634Z,68.11
2018-09-14T21:13:34.869Z,67.39
2018-09-14T21:16:04.057Z,66.66
2018-09-14T21:18:33.314Z,65.79
2018-09-14T21:21:02.540Z,65.51
2018-09-14T21:23:31.876Z,65.75
2018-09-14T21:26:01.074Z,65.03
2018-09-14T21:28:30.259Z,64.71
2018-09-14T21:30:59.436Z,64.44
2018-09-14T21:33:28.691Z,64.01
2018-09-14T21:35:58.005Z,64.02
2018-09-14T21:38:27.119Z,64.02
2018-09-14T21:40:56.215Z,63.20
2018-09-14T21:43:25.416Z,64.70
2018-09-14T21:45:54.556Z,63.58
2018-09-14T21:48:23.743Z,63.62
2018-09-14T21:50:52.923Z,63.55
2018-09-14T21:53:22.125Z,63.63
2018-09-14T21:55:51.312Z,63.35
2018-09-14T21:58:20.536Z,63.53
2018-09-14T22:00:55.810Z,64.38
2018-09-14T22:03:25.033Z,63.20
2018-09-14T22:05:54.129Z,63.69
2018-09-14T22:08:23.261Z,64.01
2018-09-14T22:10:52.380Z,63.81
2018-09-14T22:13:21.551Z,64.96
2018-09-14T22:15:50.667Z,65.18
2018-09-14T22:18:19.862Z,64.31
2018-09-14T22:20:49.024Z,64.44
2018-09-14T22:23:18.279Z,65.17
2018-09-14T22:25:47.472Z,66.09
2018-09-14T22:28:16.636Z,64.60
2018-09-14T22:30:45.917Z,65.19
2018-09-14T22:33:15.047Z,66.11
2018-09-14T22:35:44.152Z,66.24
2018-09-14T22:38:13.263Z,66.21
2018-09-14T22:40:42.418Z,65.72
2018-09-14T22:43:11.607Z,66.27
2018-09-14T22:45:40.846Z,66.90
2018-09-14T22:48:10.162Z,66.24
2018-09-14T22:50:39.440Z,66.66
2018-09-14T22:53:08.687Z,66.86
2018-09-14T22:55:38.382Z,67.12
2018-09-14T22:58:07.525Z,66.38
2018-09-14T23:00:44.755Z,66.77
2018-09-14T23:03:13.915Z,66.11
2018-09-14T23:05:43.139Z,67.15
2018-09-14T23:08:12.343Z,66.54
2018-09-14T23:10:41.585Z,65.87
2018-09-14T23:13:10.762Z,66.47
2018-09-14T23:15:44.091Z,66.47
2018-09-14T23:18:13.373Z,65.74
2018-09-14T23:20:42.507Z,66.16
2018-09-14T23:23:11.658Z,67.97
2018-09-14T23:25:40.790Z,68.17
2018-09-14T23:28:09.987Z,68.07
2018-09-14T23:30:39.106Z,68.59
2018-09-14T23:33:08.378Z,69.87
2018-09-14T23:35:37.592Z,69.74
2018-09-14T23:38:06.791Z,70.59
2018-09-14T23:40:35.985Z,70.83
2018-09-14T23:43:05.119Z,71.07
2018-09-14T23:45:34.572Z,71.29
2018-09-14T23:48:03.684Z,71.11
2018-09-14T23:50:32.861Z,71.41
2018-09-14T23:53:02.081Z,72.16
2018-09-14T23:55:31.278Z,72.84
2018-09-14T23:58:00.944Z,73.20
